createdAt,value
2023-04-29T00:02:44.079Z,97657.63
2023-04-29T00:07:46.406Z,97653.34
2023-04-29T00:12:49.778Z,97658.38
2023-04-29T00:17:52.193Z,97655.19
2023-04-29T00:22:54.463Z,97651.44
2023-04-29T00:27:56.664Z,97647.78
2023-04-29T00:32:58.892Z,97649.59
2023-04-29T00:38:01.126Z,97653.53
2023-04-29T00:43:03.413Z,97653.53
2023-04-29T00:48:06.137Z,97654.06
2023-04-29T00:53:10.456Z,97661.09
2023-04-29T00:58:12.886Z,97670.81
2023-04-29T01:03:15.788Z,97672.19
2023-04-29T01:08:48.647Z,97665.91
2023-04-29T01:13:58.439Z,97663.81
2023-04-29T01:19:13.067Z,97668.53
2023-04-29T01:24:17.046Z,97674.28
2023-04-29T01:29:59.151Z,97673.25
2023-04-29T01:35:22.607Z,97674.00
2023-04-29T01:40:38.071Z,97670.63
2023-04-29T01:45:45.201Z,97669.56
2023-04-29T01:50:49.324Z,97666.66
2023-04-29T01:55:52.523Z,97669.44
2023-04-29T02:00:57.633Z,97669.56
2023-04-29T02:06:02.664Z,97667.44
2023-04-29T02:11:04.942Z,97670.97
2023-04-29T02:16:15.620Z,97669.13
2023-04-29T02:21:27.460Z,97675.00
2023-04-29T02:26:29.679Z,97674.88
2023-04-29T02:31:32.136Z,97668.50
2023-04-29T02:36:34.385Z,97671.78
2023-04-29T02:41:36.526Z,97679.22
2023-04-29T02:46:41.086Z,97677.69
2023-04-29T02:51:43.655Z,97675.97
2023-04-29T02:56:45.907Z,97670.34
2023-04-29T03:01:48.275Z,97677.50
2023-04-29T03:06:50.950Z,97676.59
2023-04-29T03:11:53.471Z,97679.56
2023-04-29T03:16:56.697Z,97673.03
2023-04-29T03:21:59.042Z,97685.16
2023-04-29T03:27:01.398Z,97680.56
2023-04-29T03:32:03.909Z,97675.56
2023-04-29T03:37:06.820Z,97670.72
2023-04-29T03:42:12.626Z,97671.38
2023-04-29T03:47:14.858Z,97661.06
2023-04-29T03:52:17.439Z,97665.78
2023-04-29T03:57:22.337Z,97669.56
2023-04-29T04:02:25.517Z,97676.91
2023-04-29T04:07:28.038Z,97676.22
2023-04-29T04:12:50.078Z,97679.91
2023-04-29T04:17:52.681Z,97684.28
2023-04-29T04:22:55.285Z,97709.59
2023-04-29T04:28:05.086Z,97710.94
2023-04-29T04:33:26.331Z,97719.16
2023-04-29T04:38:28.646Z,97726.19
2023-04-29T04:43:31.217Z,97728.75
2023-04-29T04:48:33.578Z,97727.44
2023-04-29T04:53:35.857Z,97733.94
2023-04-29T04:58:43.460Z,97749.72
2023-04-29T05:03:46.042Z,97750.78
2023-04-29T05:08:48.677Z,97751.94
2023-04-29T05:13:51.644Z,97767.06
2023-04-29T05:18:54.593Z,97771.25
2023-04-29T05:23:59.938Z,97782.06
2023-04-29T05:29:02.335Z,97792.72
2023-04-29T05:34:10.027Z,97793.50
2023-04-29T05:39:12.434Z,97804.81
2023-04-29T05:44:14.933Z,97803.53
2023-04-29T05:49:17.286Z,97808.28
2023-04-29T05:54:19.608Z,97825.63
2023-04-29T05:59:22.413Z,97839.09
2023-04-29T06:04:28.805Z,97841.28
2023-04-29T06:09:58.020Z,97839.69
2023-04-29T06:15:01.570Z,97844.31
2023-04-29T06:20:04.666Z,97846.13
2023-04-29T06:25:07.420Z,97865.28
2023-04-29T06:30:21.391Z,97861.75
2023-04-29T06:35:23.493Z,97880.91
2023-04-29T06:40:39.762Z,97887.03
2023-04-29T06:46:05.693Z,97894.91
2023-04-29T06:51:16.285Z,97890.69
2023-04-29T06:56:18.751Z,97897.44
2023-04-29T07:01:23.352Z,97905.16
2023-04-29T07:06:27.120Z,97907.09
2023-04-29T07:11:29.658Z,97910.78
2023-04-29T07:16:31.877Z,97909.63
2023-04-29T07:21:34.038Z,97919.56
2023-04-29T07:26:36.412Z,97923.88
2023-04-29T07:31:38.733Z,97922.63
2023-04-29T07:36:41.280Z,97928.81
2023-04-29T07:41:43.878Z,97927.38
2023-04-29T07:46:46.988Z,97930.34
2023-04-29T07:51:49.234Z,97929.19
2023-04-29T07:56:51.481Z,97939.06
2023-04-29T08:01:55.916Z,97945.69
2023-04-29T08:06:58.493Z,97942.94
2023-04-29T08:12:01.874Z,97945.03
2023-04-29T08:17:05.219Z,97953.50
2023-04-29T08:22:07.549Z,97953.06
2023-04-29T08:27:09.647Z,97962.06
2023-04-29T08:32:12.246Z,97965.28
2023-04-29T08:37:17.005Z,97954.72
2023-04-29T08:42:35.213Z,97964.84
2023-04-29T08:47:38.053Z,97964.78
2023-04-29T08:52:40.189Z,97975.69
2023-04-29T08:57:45.494Z,97974.75
2023-04-29T09:02:53.831Z,97981.50
2023-04-29T09:07:59.873Z,97982.47
2023-04-29T09:13:02.030Z,97980.38
2023-04-29T09:18:04.505Z,97979.63
2023-04-29T09:23:06.711Z,97985.38
2023-04-29T09:28:18.116Z,97984.38
2023-04-29T09:33:20.353Z,97984.63
2023-04-29T09:38:22.557Z,97989.69
2023-04-29T09:43:24.723Z,97987.53
2023-04-29T09:48:33.919Z,97996.47
2023-04-29T09:53:38.368Z,98002.31
2023-04-29T09:58:40.671Z,97999.97
2023-04-29T10:03:44.007Z,98005.13
2023-04-29T10:08:48.968Z,98007.41
2023-04-29T10:13:52.859Z,97996.22
2023-04-29T10:18:56.965Z,97986.72
2023-04-29T10:24:02.965Z,97990.22
2023-04-29T10:29:08.601Z,97988.47
2023-04-29T10:34:14.181Z,97978.97
2023-04-29T10:39:44.139Z,97977.03
2023-04-29T10:45:28.977Z,97981.78
2023-04-29T10:50:35.717Z,97974.66
2023-04-29T10:55:39.123Z,97978.25
2023-04-29T11:00:41.580Z,97970.50
2023-04-29T11:05:46.100Z,97981.22
2023-04-29T11:10:48.654Z,97977.09
2023-04-29T11:16:04.311Z,97964.09
2023-04-29T11:21:06.599Z,97963.53
2023-04-29T11:26:09.393Z,97968.53
2023-04-29T11:31:12.041Z,97963.59
2023-04-29T11:36:14.643Z,97958.75
2023-04-29T11:41:20.510Z,97962.81
2023-04-29T11:46:22.705Z,97967.56
2023-04-29T11:51:24.938Z,97960.84
2023-04-29T11:56:27.191Z,97971.16
2023-04-29T12:01:29.547Z,97969.63
2023-04-29T12:06:31.887Z,97969.16
2023-04-29T12:11:34.428Z,97973.72
2023-04-29T12:16:37.381Z,97977.56
2023-04-29T12:21:50.351Z,97979.63
2023-04-29T12:26:54.325Z,97979.41
2023-04-29T12:31:56.981Z,97985.31
2023-04-29T12:37:03.048Z,97996.13
2023-04-29T12:42:05.548Z,97993.34
2023-04-29T12:47:12.009Z,97996.59
2023-04-29T12:52:14.542Z,97989.03
2023-04-29T12:57:16.933Z,97997.88
2023-04-29T13:02:19.413Z,97998.41
2023-04-29T13:07:21.904Z,97998.56
2023-04-29T13:12:24.017Z,97989.34
2023-04-29T13:17:26.492Z,98002.44
2023-04-29T13:22:29.488Z,98005.16
2023-04-29T13:27:32.284Z,98011.56
2023-04-29T13:32:43.955Z,98006.94
2023-04-29T13:37:48.834Z,98014.56
2023-04-29T13:42:59.619Z,98013.34
2023-04-29T13:48:20.047Z,98024.56
2023-04-29T13:53:51.028Z,98021.84
2023-04-29T13:59:23.620Z,98033.16
2023-04-29T14:04:13.396Z,98028.50
2023-04-29T14:09:16.159Z,98024.03
2023-04-29T14:14:18.432Z,98023.38
2023-04-29T14:19:20.893Z,98027.53
2023-04-29T14:24:23.058Z,98031.91
2023-04-29T14:29:25.333Z,98030.63
2023-04-29T14:34:27.473Z,98035.91
2023-04-29T14:39:29.606Z,98051.59
2023-04-29T14:44:31.707Z,98043.47
2023-04-29T14:49:34.019Z,98055.47
2023-04-29T14:54:36.390Z,98062.22
2023-04-29T14:59:38.459Z,98067.16
2023-04-29T15:04:45.750Z,98075.78
2023-04-29T15:09:48.067Z,98073.78
2023-04-29T15:14:51.053Z,98081.09
2023-04-29T15:19:53.376Z,98083.03
2023-04-29T15:24:55.613Z,98080.25
2023-04-29T15:29:58.102Z,98080.78
2023-04-29T15:35:02.023Z,98092.13
2023-04-29T15:40:05.284Z,98096.00
2023-04-29T15:45:08.986Z,98105.25
2023-04-29T15:50:11.412Z,98106.97
2023-04-29T15:55:13.678Z,98106.22
2023-04-29T16:00:16.390Z,98111.00
2023-04-29T16:05:18.442Z,98118.63
2023-04-29T16:10:20.677Z,98123.88
2023-04-29T16:15:22.957Z,98124.16
2023-04-29T16:20:25.911Z,98120.00
2023-04-29T16:25:28.371Z,98116.22
2023-04-29T16:30:30.488Z,98124.09
2023-04-29T16:35:32.811Z,98129.91
2023-04-29T16:40:35.217Z,98132.41
2023-04-29T16:45:37.345Z,98140.50
2023-04-29T16:50:39.568Z,98132.56
2023-04-29T16:55:46.007Z,98135.31
2023-04-29T17:00:48.240Z,98134.56
2023-04-29T17:05:50.446Z,98142.03
2023-04-29T17:10:52.574Z,98143.91
2023-04-29T17:15:54.753Z,98137.22
2023-04-29T17:20:56.966Z,98145.31
2023-04-29T17:25:59.126Z,98141.97
2023-04-29T17:31:02.572Z,98144.19
2023-04-29T17:36:05.955Z,98142.06
2023-04-29T17:41:08.195Z,98143.41
2023-04-29T17:46:10.492Z,98144.91
2023-04-29T17:51:12.782Z,98151.78
2023-04-29T17:56:14.925Z,98144.41
2023-04-29T18:01:17.149Z,98140.56
2023-04-29T18:06:19.396Z,98156.56
2023-04-29T18:11:21.598Z,98152.66
2023-04-29T18:16:23.932Z,98160.59
2023-04-29T18:21:27.741Z,98161.06
2023-04-29T18:26:29.937Z,98155.88
2023-04-29T18:31:32.222Z,98160.94
2023-04-29T18:36:34.522Z,98157.53
2023-04-29T18:41:37.171Z,98165.81
2023-04-29T18:46:39.587Z,98161.22
2023-04-29T18:51:46.838Z,98164.31
2023-04-29T18:56:50.273Z,98171.94
2023-04-29T19:01:53.256Z,98170.56
2023-04-29T19:06:55.578Z,98186.50
2023-04-29T19:12:05.447Z,98193.22
2023-04-29T19:17:07.736Z,98192.94
2023-04-29T19:22:10.081Z,98203.91
2023-04-29T19:27:12.656Z,98203.72
2023-04-29T19:32:15.287Z,98214.34
2023-04-29T19:37:17.750Z,98219.69
2023-04-29T19:42:19.868Z,98223.25
2023-04-29T19:47:24.173Z,98218.97
2023-04-29T19:52:27.020Z,98227.38
2023-04-29T19:57:29.116Z,98223.84
2023-04-29T20:02:33.079Z,98212.19
2023-04-29T20:07:35.529Z,98222.13
2023-04-29T20:12:37.727Z,98229.44
2023-04-29T20:17:40.182Z,98238.59
2023-04-29T20:22:42.567Z,98231.44
2023-04-29T20:27:44.784Z,98233.81
2023-04-29T20:32:47.328Z,98239.03
2023-04-29T20:37:49.748Z,98240.81
2023-04-29T20:42:51.951Z,98239.53
2023-04-29T20:47:54.693Z,98249.03
2023-04-29T20:52:57.011Z,98245.91
2023-04-29T20:57:59.137Z,98246.00
2023-04-29T21:03:01.712Z,98248.84
2023-04-29T21:08:03.996Z,98245.66
2023-04-29T21:13:06.182Z,98250.00
2023-04-29T21:18:08.391Z,98244.31
2023-04-29T21:23:10.601Z,98251.44
2023-04-29T21:28:14.317Z,98248.03
2023-04-29T21:33:17.725Z,98253.00
2023-04-29T21:38:19.903Z,98249.59
2023-04-29T21:43:22.070Z,98241.94
2023-04-29T21:48:25.341Z,98245.59
2023-04-29T21:53:27.525Z,98248.06
2023-04-29T21:58:29.678Z,98251.91
2023-04-29T22:03:32.035Z,98266.78
2023-04-29T22:08:34.236Z,98267.31
2023-04-29T22:13:36.496Z,98255.06
2023-04-29T22:18:38.907Z,98263.88
2023-04-29T22:23:42.016Z,98262.28
2023-04-29T22:28:44.379Z,98263.91
2023-04-29T22:33:46.622Z,98265.13
2023-04-29T22:38:49.104Z,98274.50
2023-04-29T22:43:57.224Z,98282.09
2023-04-29T22:48:59.709Z,98269.72
2023-04-29T22:54:01.926Z,98273.16
2023-04-29T22:59:04.140Z,98268.34
2023-04-29T23:04:06.428Z,98263.97
2023-04-29T23:09:08.799Z,98269.91
2023-04-29T23:14:11.171Z,98265.66
2023-04-29T23:19:13.407Z,98263.75
2023-04-29T23:24:15.667Z,98260.75
2023-04-29T23:29:18.079Z,98275.47
2023-04-29T23:34:20.481Z,98273.28
2023-04-29T23:39:22.789Z,98279.72
2023-04-29T23:44:25.475Z,98272.66
2023-04-29T23:49:28.728Z,98275.97
2023-04-29T23:54:30.984Z,98283.91
2023-04-29T23:59:33.175Z,98289.53
